Time;durP1;ratioP1;P1;durP2;ratioP2;P2;SDS_P1;SDS_P2;PMS_P1;PMS_P2;Temp;Humidity;BMP_temperature;BMP_pressure;BME280_temperature;BME280_humidity;BME280_pressure;Samples;Min_cycle;Max_cycle;Signal;HPM_P1;HPM_P2
2021/08/04 00:01:44;;;;;;;6.97;2.20;;;24.40;63.40;;;;;;5115475;28;20070;-73
2021/08/04 00:04:10;;;;;;;8.90;2.20;;;24.40;63.30;;;;;;5114952;28;20054;-72
2021/08/04 00:06:37;;;;;;;8.52;2.42;;;24.40;63.10;;;;;;5115363;28;20506;-73
2021/08/04 00:09:03;;;;;;;5.22;2.08;;;24.40;62.80;;;;;;5114859;28;20034;-72
2021/08/04 00:11:29;;;;;;;7.70;2.25;;;24.40;62.80;;;;;;5114827;28;20039;-73
2021/08/04 00:13:54;;;;;;;7.40;2.28;;;24.30;62.80;;;;;;5115076;28;20032;-73
2021/08/04 00:16:20;;;;;;;4.82;2.00;;;24.40;62.90;;;;;;5114472;28;20023;-72
2021/08/04 00:18:46;;;;;;;8.18;2.10;;;24.30;62.70;;;;;;5114885;28;20031;-73
2021/08/04 00:21:12;;;;;;;11.27;2.42;;;24.40;62.70;;;;;;5114786;28;20027;-73
2021/08/04 00:23:37;;;;;;;6.38;2.33;;;24.30;62.60;;;;;;5114987;28;20480;-73
2021/08/04 00:26:03;;;;;;;6.00;2.28;;;24.30;62.60;;;;;;5114848;27;20081;-73
2021/08/04 00:28:29;;;;;;;5.88;2.25;;;24.30;62.30;;;;;;5114722;28;20527;-74
2021/08/04 00:30:54;;;;;;;6.47;2.10;;;24.30;62.30;;;;;;5114890;28;20058;-73
2021/08/04 00:33:20;;;;;;;6.80;2.40;;;24.30;62.10;;;;;;5114722;28;20456;-73
2021/08/04 00:35:46;;;;;;;5.82;2.00;;;24.30;62.00;;;;;;5114600;28;20019;-72
2021/08/04 00:38:12;;;;;;;5.97;2.13;;;24.30;62.00;;;;;;5115135;28;20020;-72
2021/08/04 00:40:39;;;;;;;9.38;2.17;;;24.30;62.10;;;;;;5113408;28;20072;-72
2021/08/04 00:43:06;;;;;;;6.40;2.17;;;24.30;62.10;;;;;;5114562;28;20510;-73
2021/08/04 00:45:31;;;;;;;6.25;2.30;;;24.20;62.20;;;;;;5114479;28;20031;-72
2021/08/04 00:47:57;;;;;;;5.03;1.88;;;24.30;62.50;;;;;;5114583;28;20379;-72
2021/08/04 00:50:23;;;;;;;3.90;2.05;;;24.20;62.50;;;;;;5114404;28;20030;-72
2021/08/04 00:52:49;;;;;;;5.88;2.17;;;24.30;63.00;;;;;;5114485;28;20024;-72
2021/08/04 00:55:15;;;;;;;5.90;1.70;;;24.20;63.40;;;;;;5114201;28;20024;-72
2021/08/04 00:57:41;;;;;;;4.85;1.88;;;24.30;63.90;;;;;;5113191;28;20012;-73
2021/08/04 01:00:09;;;;;;;5.45;1.65;;;24.20;64.30;;;;;;5111473;28;20390;-73
2021/08/04 01:02:48;;;;;;;10.07;2.33;;;24.20;64.50;;;;;;5110838;28;20165;-73
2021/08/04 01:05:25;;;;;;;4.57;1.77;;;24.20;64.80;;;;;;5111399;28;20043;-73
2021/08/04 01:08:08;;;;;;;3.97;1.90;;;24.20;65.50;;;;;;5114024;28;20027;-73
2021/08/04 01:10:48;;;;;;;6.90;2.00;;;24.10;65.00;;;;;;5114099;28;20429;-73
2021/08/04 01:13:41;;;;;;;5.82;1.90;;;24.20;65.40;;;;;;5113639;28;20047;-73
2021/08/04 01:16:23;;;;;;;8.65;1.95;;;24.10;65.70;;;;;;5114083;28;20028;-73
2021/08/04 01:19:21;;;;;;;3.15;1.92;;;24.10;65.90;;;;;;5113886;28;20132;-73
2021/08/04 01:22:04;;;;;;;5.55;2.28;;;24.00;66.10;;;;;;5093771;28;20480;-73
2021/08/04 01:24:37;;;;;;;6.47;2.15;;;24.00;66.60;;;;;;5113773;28;20067;-73
2021/08/04 01:27:05;;;;;;;6.13;2.10;;;23.90;66.70;;;;;;5113723;28;20091;-73
2021/08/04 01:29:31;;;;;;;3.92;2.03;;;23.90;66.90;;;;;;5112330;28;20028;-72
2021/08/04 01:32:01;;;;;;;3.95;1.77;;;23.90;67.20;;;;;;5113350;28;20046;-73
2021/08/04 01:34:28;;;;;;;4.80;2.30;;;23.90;67.30;;;;;;5113473;28;20047;-73
2021/08/04 01:36:55;;;;;;;4.53;1.70;;;23.90;67.30;;;;;;5113473;28;20055;-73
2021/08/04 01:39:22;;;;;;;4.40;1.92;;;23.80;67.30;;;;;;5113556;28;20099;-73
2021/08/04 01:41:51;;;;;;;3.50;1.88;;;23.80;67.50;;;;;;5113377;28;20030;-73
2021/08/04 01:44:18;;;;;;;4.50;1.67;;;23.80;67.60;;;;;;5113170;28;20024;-73
2021/08/04 01:46:44;;;;;;;3.08;1.73;;;23.70;67.60;;;;;;5113679;28;20032;-73
2021/08/04 01:49:11;;;;;;;4.88;1.77;;;23.70;67.70;;;;;;5113595;28;20060;-73
2021/08/04 01:51:37;;;;;;;3.92;1.92;;;23.70;67.90;;;;;;5113169;28;20375;-73
2021/08/04 01:54:04;;;;;;;3.85;1.98;;;23.60;68.00;;;;;;5113124;28;20030;-73
2021/08/04 01:56:30;;;;;;;2.95;1.70;;;23.60;68.10;;;;;;5113416;28;20022;-72
2021/08/04 01:58:56;;;;;;;5.82;2.25;;;23.60;68.00;;;;;;5113332;28;20019;-73
2021/08/04 02:01:25;;;;;;;6.15;1.80;;;23.60;67.90;;;;;;5113511;28;20020;-73
2021/08/04 02:03:54;;;;;;;6.50;1.88;;;23.60;67.80;;;;;;5113222;28;20548;-73
2021/08/04 02:06:23;;;;;;;4.82;1.98;;;23.60;68.30;;;;;;5113182;28;20024;-73
2021/08/04 02:09:10;;;;;;;5.07;2.15;;;23.60;67.90;;;;;;5113516;28;20019;-73
2021/08/04 02:11:48;;;;;;;5.40;1.70;;;23.60;67.90;;;;;;5112990;28;20026;-73
2021/08/04 02:14:28;;;;;;;5.13;1.92;;;23.60;68.00;;;;;;5113227;28;20047;-73
2021/08/04 02:17:31;;;;;;;3.80;1.90;;;23.60;67.90;;;;;;5113331;28;20216;-73
2021/08/04 02:20:21;;;;;;;3.90;1.67;;;23.60;67.80;;;;;;5113260;28;20028;-73
2021/08/04 02:22:57;;;;;;;6.18;1.88;;;23.60;67.80;;;;;;5113181;28;20031;-73
2021/08/04 02:26:13;;;;;;;3.10;1.90;;;23.60;67.90;;;;;;5112860;28;20052;-72
2021/08/04 02:28:51;;;;;;;5.25;2.03;;;23.50;67.90;;;;;;5070561;28;20024;-73
2021/08/04 02:31:18;;;;;;;3.85;1.75;;;23.50;68.00;;;;;;5107718;28;20096;-73
2021/08/04 02:33:44;;;;;;;4.85;1.90;;;23.50;68.00;;;;;;5113192;28;20031;-72
2021/08/04 02:36:12;;;;;;;3.92;1.95;;;23.50;68.10;;;;;;5112708;28;20024;-73
2021/08/04 02:38:37;;;;;;;4.95;1.80;;;23.40;68.20;;;;;;5113062;28;20372;-73
2021/08/04 02:41:04;;;;;;;3.50;1.73;;;23.40;68.20;;;;;;5116145;28;20037;-73
2021/08/04 02:43:31;;;;;;;4.00;2.00;;;23.40;68.30;;;;;;5116883;28;20472;-73
2021/08/04 02:45:58;;;;;;;3.60;1.90;;;23.40;68.40;;;;;;5116466;28;20036;-73
2021/08/04 02:48:24;;;;;;;7.97;2.10;;;23.40;68.40;;;;;;5116655;28;20020;-73
2021/08/04 02:50:57;;;;;;;5.15;2.28;;;23.40;68.50;;;;;;5116653;28;20532;-73
2021/08/04 02:53:23;;;;;;;4.15;1.67;;;23.40;68.60;;;;;;5116732;28;20059;-72
2021/08/04 02:55:51;;;;;;;4.25;2.08;;;23.40;68.70;;;;;;5116440;28;20437;-73
2021/08/04 02:58:17;;;;;;;6.80;1.92;;;23.40;68.70;;;;;;5116605;28;20102;-73
2021/08/04 03:00:44;;;;;;;5.63;1.70;;;23.40;68.60;;;;;;5116240;28;20031;-73
2021/08/04 03:03:10;;;;;;;5.47;2.08;;;23.40;68.80;;;;;;5116316;28;20056;-73
2021/08/04 03:05:35;;;;;;;3.50;1.98;;;23.30;68.90;;;;;;5116459;28;20496;-73
2021/08/04 03:08:01;;;;;;;3.90;1.70;;;23.30;68.90;;;;;;5116493;28;20024;-72
2021/08/04 03:10:27;;;;;;;3.55;1.75;;;23.30;68.80;;;;;;5116152;28;20023;-72
2021/08/04 03:12:52;;;;;;;6.93;2.22;;;23.30;68.90;;;;;;5116016;28;20048;-73
2021/08/04 03:15:19;;;;;;;7.63;1.77;;;23.30;69.60;;;;;;5116061;28;20020;-73
2021/08/04 03:17:44;;;;;;;6.22;2.22;;;23.30;69.00;;;;;;5116294;28;20024;-72
2021/08/04 03:20:10;;;;;;;4.03;2.00;;;23.30;69.00;;;;;;5116363;28;20110;-72
2021/08/04 03:22:41;;;;;;;4.95;1.75;;;23.30;69.00;;;;;;5116063;28;20020;-72
2021/08/04 03:25:07;;;;;;;3.00;1.60;;;23.30;68.90;;;;;;5116009;28;20053;-73
2021/08/04 03:27:33;;;;;;;3.25;1.70;;;23.20;68.50;;;;;;5116194;28;20543;-73
2021/08/04 03:29:58;;;;;;;3.17;1.40;;;23.30;68.40;;;;;;5115992;28;20023;-73
2021/08/04 03:32:25;;;;;;;2.72;1.67;;;23.20;68.50;;;;;;5116027;28;20068;-73
2021/08/04 03:34:50;;;;;;;5.68;1.92;;;23.20;68.60;;;;;;5115460;27;20016;-73
2021/08/04 03:37:16;;;;;;;4.18;1.70;;;23.20;68.70;;;;;;5115823;28;20218;-73
2021/08/04 03:39:42;;;;;;;2.97;1.33;;;23.20;68.70;;;;;;5115780;28;20106;-73
2021/08/04 03:42:07;;;;;;;6.88;2.00;;;23.20;68.80;;;;;;5115647;28;20076;-73
2021/08/04 03:44:33;;;;;;;2.72;1.52;;;23.20;68.80;;;;;;5115641;28;20107;-73
2021/08/04 03:46:59;;;;;;;4.22;1.60;;;23.20;68.60;;;;;;5115685;28;20472;-73
2021/08/04 03:49:24;;;;;;;6.97;2.17;;;23.20;68.70;;;;;;5115586;28;20032;-73
2021/08/04 03:51:50;;;;;;;6.43;2.33;;;23.20;68.70;;;;;;5114902;28;20475;-73
2021/08/04 03:54:16;;;;;;;6.70;2.47;;;23.20;68.50;;;;;;5115454;28;20383;-72
2021/08/04 03:56:42;;;;;;;6.60;2.55;;;23.20;68.40;;;;;;5115490;28;20023;-73
2021/08/04 03:59:07;;;;;;;5.72;2.53;;;23.20;68.20;;;;;;5115475;28;20399;-73
2021/08/04 04:01:33;;;;;;;11.40;3.35;;;23.10;68.10;;;;;;5115440;28;20031;-73
2021/08/04 04:03:59;;;;;;;6.88;2.45;;;23.10;68.10;;;;;;5115195;27;20027;-72
2021/08/04 04:06:24;;;;;;;6.15;2.63;;;23.10;68.20;;;;;;5115264;28;20027;-73
2021/08/04 04:08:50;;;;;;;8.02;2.47;;;23.10;68.30;;;;;;5115411;28;20031;-73
2021/08/04 04:11:16;;;;;;;7.68;2.75;;;23.00;68.40;;;;;;5115138;28;20051;-73
2021/08/04 04:13:42;;;;;;;10.65;2.70;;;23.00;68.60;;;;;;5114881;28;20042;-72
2021/08/04 04:16:07;;;;;;;7.65;2.70;;;23.00;69.00;;;;;;5113734;28;20107;-72
2021/08/04 04:18:33;;;;;;;7.47;2.70;;;23.00;69.10;;;;;;5115204;28;20106;-72
2021/08/04 04:20:59;;;;;;;7.25;2.70;;;23.00;69.10;;;;;;5115169;28;20023;-72
2021/08/04 04:23:25;;;;;;;8.38;2.78;;;23.00;69.10;;;;;;5114863;28;20103;-73
2021/08/04 04:25:50;;;;;;;8.48;2.80;;;23.10;69.10;;;;;;5114443;28;20523;-73
2021/08/04 04:28:16;;;;;;;4.80;2.75;;;23.00;69.00;;;;;;5114662;28;20094;-73
2021/08/04 04:30:42;;;;;;;8.23;2.33;;;23.00;69.00;;;;;;5114749;28;20054;-73
2021/08/04 04:33:07;;;;;;;9.90;2.20;;;23.00;69.10;;;;;;5114770;28;20565;-73
2021/08/04 04:35:33;;;;;;;5.50;2.30;;;23.10;69.00;;;;;;5114528;28;20148;-73
2021/08/04 04:37:59;;;;;;;7.90;2.55;;;23.00;68.80;;;;;;5114761;28;20030;-72
2021/08/04 04:40:24;;;;;;;6.88;2.10;;;23.00;68.50;;;;;;5113330;28;20114;-73
2021/08/04 04:42:50;;;;;;;5.45;1.90;;;23.00;68.10;;;;;;5114801;28;20015;-72
2021/08/04 04:45:16;;;;;;;7.88;2.00;;;23.00;67.40;;;;;;5114228;28;20036;-73
2021/08/04 04:47:41;;;;;;;8.73;2.47;;;23.00;66.70;;;;;;5114356;28;20442;-73
2021/08/04 04:50:08;;;;;;;10.40;2.05;;;23.00;66.60;;;;;;5114471;28;20024;-73
2021/08/04 04:52:40;;;;;;;7.53;1.75;;;23.00;66.50;;;;;;5114160;28;20066;-73
2021/08/04 04:55:06;;;;;;;7.25;1.85;;;23.00;66.40;;;;;;5113958;28;20028;-73
2021/08/04 04:57:32;;;;;;;4.93;2.10;;;23.00;67.00;;;;;;5114207;27;20023;-73
2021/08/04 04:59:57;;;;;;;5.07;2.00;;;23.00;66.00;;;;;;5114037;28;20024;-73
2021/08/04 05:02:23;;;;;;;5.72;1.85;;;23.00;65.60;;;;;;5113883;28;20045;-73
2021/08/04 05:04:49;;;;;;;6.10;1.65;;;23.00;65.30;;;;;;5113892;28;20088;-73
2021/08/04 05:07:14;;;;;;;6.55;1.88;;;23.00;64.90;;;;;;5113857;28;20023;-73
2021/08/04 05:09:40;;;;;;;5.43;1.90;;;23.00;64.60;;;;;;5114114;28;20077;-72
2021/08/04 05:12:06;;;;;;;6.50;1.70;;;23.00;64.60;;;;;;5113737;27;20035;-73
2021/08/04 05:14:32;;;;;;;9.02;2.00;;;23.00;65.00;;;;;;5113853;28;20456;-73
2021/08/04 05:16:58;;;;;;;6.30;1.98;;;23.00;65.80;;;;;;5114144;28;20020;-73
2021/08/04 05:19:24;;;;;;;5.35;1.58;;;23.10;66.70;;;;;;5112503;28;20055;-73
2021/08/04 05:21:49;;;;;;;5.68;1.70;;;23.10;67.60;;;;;;5113662;28;20113;-72
2021/08/04 05:24:15;;;;;;;4.82;1.90;;;23.10;68.00;;;;;;5113598;28;20079;-73
2021/08/04 05:26:41;;;;;;;5.55;1.70;;;23.10;68.20;;;;;;5113714;28;20118;-73
2021/08/04 05:29:06;;;;;;;3.88;1.50;;;23.10;68.40;;;;;;5113928;28;20019;-73
2021/08/04 05:31:32;;;;;;;2.78;1.35;;;23.10;68.70;;;;;;5113727;28;20061;-73
2021/08/04 05:33:58;;;;;;;7.40;1.65;;;23.10;68.70;;;;;;5113587;28;20026;-73
2021/08/04 05:36:23;;;;;;;4.47;1.63;;;23.10;68.70;;;;;;5113689;28;20043;-73
2021/08/04 05:38:49;;;;;;;3.70;1.40;;;23.20;68.70;;;;;;5112443;28;20023;-73
2021/08/04 05:41:15;;;;;;;6.10;1.60;;;23.10;68.50;;;;;;5112431;28;20019;-73
2021/08/04 05:43:40;;;;;;;5.22;1.80;;;23.10;68.30;;;;;;5113678;28;20468;-73
2021/08/04 05:46:06;;;;;;;4.47;1.60;;;23.10;68.20;;;;;;5113468;28;20051;-73
2021/08/04 05:48:32;;;;;;;7.20;1.90;;;23.20;68.40;;;;;;5113688;28;20465;-74
2021/08/04 05:50:57;;;;;;;5.22;1.58;;;23.20;68.20;;;;;;5112110;28;20387;-71
2021/08/04 05:53:23;;;;;;;4.30;1.75;;;23.20;67.00;;;;;;5110261;28;20094;-72
2021/08/04 05:55:49;;;;;;;3.47;1.60;;;23.20;66.30;;;;;;5109624;28;20028;-72
2021/08/04 05:58:16;;;;;;;10.32;1.85;;;23.20;66.40;;;;;;5110251;28;20392;-74
2021/08/04 06:00:42;;;;;;;4.28;1.48;;;23.20;66.40;;;;;;5111946;28;20098;-72
2021/08/04 06:03:08;;;;;;;6.65;1.70;;;23.20;65.30;;;;;;5111873;28;20051;-72
2021/08/04 06:05:34;;;;;;;5.15;1.88;;;23.20;64.10;;;;;;5110299;28;20062;-73
2021/08/04 06:08:00;;;;;;;4.30;1.85;;;23.20;62.50;;;;;;5110506;28;20027;-73
2021/08/04 06:10:26;;;;;;;7.85;1.65;;;23.20;61.50;;;;;;5111354;28;20119;-72
2021/08/04 06:13:01;;;;;;;13.18;2.00;;;23.30;61.10;;;;;;5112184;28;20081;-73
2021/08/04 06:15:27;;;;;;;7.93;1.92;;;23.30;60.70;;;;;;5115784;28;20023;-74
2021/08/04 06:17:52;;;;;;;3.75;1.60;;;23.30;60.90;;;;;;5116504;28;20359;-74
2021/08/04 06:20:18;;;;;;;3.67;1.52;;;23.30;61.10;;;;;;5116109;28;20055;-72
2021/08/04 06:22:44;;;;;;;5.05;1.73;;;23.30;61.60;;;;;;5116204;28;20476;-73
2021/08/04 06:25:10;;;;;;;4.85;1.60;;;23.40;62.60;;;;;;5115253;28;20036;-73
2021/08/04 06:27:36;;;;;;;5.38;1.63;;;23.40;62.50;;;;;;5115879;28;20026;-73
2021/08/04 06:30:03;;;;;;;4.63;1.83;;;23.50;62.20;;;;;;5117230;27;20128;-72
2021/08/04 06:32:29;;;;;;;6.30;1.70;;;23.50;61.80;;;;;;5117288;28;20036;-71
2021/08/04 06:34:55;;;;;;;5.05;1.48;;;23.60;61.50;;;;;;5116801;28;20032;-71
2021/08/04 06:37:21;;;;;;;5.22;1.73;;;23.60;61.20;;;;;;5115500;28;20028;-71
2021/08/04 06:39:47;;;;;;;4.80;1.42;;;23.60;60.90;;;;;;5115736;28;20035;-72
2021/08/04 06:42:13;;;;;;;5.47;1.30;;;23.60;60.70;;;;;;5115542;28;20437;-74
2021/08/04 06:44:40;;;;;;;5.30;1.58;;;23.70;60.80;;;;;;5117575;28;20077;-73
2021/08/04 06:47:09;;;;;;;7.15;1.75;;;23.70;60.70;;;;;;5115857;28;20032;-71
2021/08/04 06:49:35;;;;;;;5.35;1.52;;;23.70;60.70;;;;;;5115366;28;20032;-71
2021/08/04 06:52:00;;;;;;;4.68;1.70;;;23.80;60.80;;;;;;5116454;28;20027;-71
2021/08/04 06:54:26;;;;;;;4.20;1.40;;;23.80;60.30;;;;;;5116652;28;20364;-71
2021/08/04 06:56:52;;;;;;;4.32;1.73;;;23.90;60.30;;;;;;5116682;28;20007;-71
2021/08/04 06:59:18;;;;;;;5.22;1.67;;;23.90;60.40;;;;;;5116752;28;20046;-71
2021/08/04 07:01:47;;;;;;;5.38;2.05;;;23.90;60.70;;;;;;5116505;28;20033;-71
2021/08/04 07:04:14;;;;;;;3.72;1.85;;;23.90;61.20;;;;;;5116348;28;20080;-71
2021/08/04 07:06:59;;;;;;;7.15;1.95;;;24.00;61.40;;;;;;5116263;28;20087;-71
2021/08/04 07:09:25;;;;;;;10.25;1.75;;;24.00;61.10;;;;;;5115168;28;20095;-71
2021/08/04 07:11:53;;;;;;;7.32;1.67;;;24.00;61.10;;;;;;5116062;28;20094;-71
2021/08/04 07:14:19;;;;;;;4.40;1.83;;;24.00;61.00;;;;;;5115630;28;20024;-71
2021/08/04 07:16:48;;;;;;;5.07;1.77;;;24.10;61.00;;;;;;5116263;28;20034;-72
2021/08/04 07:19:14;;;;;;;4.32;1.52;;;24.10;60.70;;;;;;5116040;28;20020;-71
2021/08/04 07:21:40;;;;;;;4.50;1.90;;;24.20;60.10;;;;;;5115921;28;20506;-71
2021/08/04 07:24:07;;;;;;;3.90;1.73;;;24.20;59.70;;;;;;5115631;28;20019;-71
2021/08/04 07:26:34;;;;;;;3.97;1.73;;;24.20;60.10;;;;;;5113861;28;20390;-72
2021/08/04 07:29:00;;;;;;;8.25;1.77;;;24.30;59.60;;;;;;5114953;28;20049;-72
2021/08/04 07:31:26;;;;;;;5.05;1.65;;;24.30;59.80;;;;;;5112947;28;20114;-72
2021/08/04 07:33:52;;;;;;;3.60;1.65;;;24.40;59.90;;;;;;5114310;28;20024;-71
2021/08/04 07:36:18;;;;;;;5.47;1.60;;;24.30;60.20;;;;;;5114103;28;20019;-71
2021/08/04 07:38:44;;;;;;;5.00;1.67;;;24.50;60.50;;;;;;5114356;28;20032;-71
2021/08/04 07:41:10;;;;;;;13.48;1.63;;;24.50;60.50;;;;;;5115195;28;20030;-71
2021/08/04 07:43:36;;;;;;;9.48;2.63;;;24.60;60.80;;;;;;5115220;28;20095;-71
2021/08/04 07:46:02;;;;;;;7.05;1.83;;;24.70;61.30;;;;;;5114040;28;20036;-71
2021/08/04 07:48:28;;;;;;;8.15;2.20;;;24.80;61.20;;;;;;5113924;28;20076;-71
2021/08/04 07:50:55;;;;;;;4.40;1.60;;;24.80;61.90;;;;;;5115133;28;20384;-70
2021/08/04 07:53:22;;;;;;;4.35;1.60;;;24.90;62.80;;;;;;5114739;28;20027;-70
2021/08/04 07:55:48;;;;;;;10.00;2.03;;;25.00;62.00;;;;;;5115457;28;20028;-70
2021/08/04 07:58:13;;;;;;;9.15;3.25;;;25.10;62.50;;;;;;5114475;28;20020;-70
2021/08/04 08:00:39;;;;;;;7.07;2.78;;;25.20;69.00;;;;;;5114029;28;20050;-70
2021/08/04 08:03:05;;;;;;;7.15;3.03;;;25.20;68.20;;;;;;5114312;28;20043;-68
2021/08/04 08:05:30;;;;;;;4.47;2.10;;;25.20;66.30;;;;;;5114329;28;20036;-70
2021/08/04 08:08:03;;;;;;;9.10;5.63;;;25.20;67.50;;;;;;5113273;28;20096;-70
2021/08/04 08:10:29;;;;;;;10.18;5.03;;;25.30;67.60;;;;;;5114101;27;20024;-70
2021/08/04 08:12:55;;;;;;;8.55;1.88;;;25.30;69.30;;;;;;5114787;27;20051;-70
2021/08/04 08:15:21;;;;;;;6.18;2.20;;;25.30;68.20;;;;;;5114583;28;20030;-70
2021/08/04 08:17:47;;;;;;;4.63;1.95;;;25.30;67.40;;;;;;5114988;28;20024;-70
2021/08/04 08:20:13;;;;;;;7.63;1.90;;;25.40;64.90;;;;;;5115193;28;20456;-70
2021/08/04 08:22:39;;;;;;;4.55;2.03;;;25.40;64.00;;;;;;5114517;28;20024;-70
2021/08/04 08:25:06;;;;;;;12.82;2.10;;;25.40;63.10;;;;;;5113623;28;20511;-70
2021/08/04 08:27:32;;;;;;;7.03;2.05;;;25.40;66.50;;;;;;5112628;28;20080;-71
2021/08/04 08:29:58;;;;;;;4.63;1.83;;;25.40;65.00;;;;;;5114252;28;20030;-70
2021/08/04 08:32:26;;;;;;;9.98;2.25;;;25.50;64.00;;;;;;5113864;28;20098;-70
2021/08/04 08:34:53;;;;;;;7.93;2.05;;;25.50;64.00;;;;;;5112039;28;20107;-70
2021/08/04 08:37:18;;;;;;;4.90;1.95;;;25.50;63.80;;;;;;5112409;28;20095;-70
2021/08/04 08:39:44;;;;;;;3.50;1.90;;;25.50;63.40;;;;;;5113365;28;20043;-69
2021/08/04 08:42:10;;;;;;;5.15;1.77;;;25.60;63.20;;;;;;5113752;28;20039;-71
2021/08/04 08:44:36;;;;;;;5.60;1.73;;;25.60;63.40;;;;;;5113646;28;20027;-70
2021/08/04 08:47:09;;;;;;;11.05;2.03;;;25.70;62.90;;;;;;5113509;28;20070;-71
2021/08/04 08:49:35;;;;;;;6.72;2.13;;;25.80;63.10;;;;;;5113517;28;20491;-70
2021/08/04 08:52:01;;;;;;;294.45;17.98;;;25.80;62.80;;;;;;5113025;28;20062;-68
2021/08/04 08:54:27;;;;;;;3.97;1.60;;;25.80;63.20;;;;;;5114265;27;20495;-69
2021/08/04 08:56:54;;;;;;;6.32;1.55;;;25.80;62.40;;;;;;5114052;28;20039;-69
2021/08/04 08:59:19;;;;;;;6.13;1.80;;;25.80;61.80;;;;;;5113383;28;20036;-70
2021/08/04 09:01:46;;;;;;;8.55;2.20;;;25.90;62.30;;;;;;5113150;28;20034;-69
2021/08/04 09:04:16;;;;;;;4.65;1.83;;;25.90;61.50;;;;;;5112112;28;20105;-70
2021/08/04 09:06:54;;;;;;;6.07;1.85;;;26.00;61.30;;;;;;5114127;28;20153;-68
2021/08/04 09:09:21;;;;;;;6.90;2.05;;;;;;;;;;5112656;28;20024;-69
2021/08/04 09:11:53;;;;;;;8.88;2.00;;;26.00;61.20;;;;;;5113678;28;20165;-68
2021/08/04 09:14:32;;;;;;;5.57;1.92;;;26.10;61.40;;;;;;5113770;28;20042;-69
2021/08/04 09:17:02;;;;;;;5.28;1.90;;;26.20;59.40;;;;;;5113906;28;20016;-67
2021/08/04 09:19:30;;;;;;;5.07;2.05;;;26.20;59.10;;;;;;5113431;28;20040;-72
2021/08/04 09:22:08;;;;;;;5.05;1.92;;;26.30;59.10;;;;;;5111694;28;20085;-72
2021/08/04 09:24:58;;;;;;;6.95;1.98;;;26.30;58.90;;;;;;5113102;28;20059;-72
2021/08/04 09:27:49;;;;;;;4.95;2.10;;;26.40;59.20;;;;;;5113392;28;20035;-72
2021/08/04 09:30:33;;;;;;;3.63;1.75;;;26.50;59.20;;;;;;5108370;28;20031;-71
2021/08/04 09:33:26;;;;;;;9.65;1.88;;;26.50;59.00;;;;;;5113019;28;20024;-72
2021/08/04 09:35:56;;;;;;;6.35;2.00;;;26.50;58.70;;;;;;5108013;28;20031;-71
2021/08/04 09:38:22;;;;;;;7.05;2.15;;;26.60;58.80;;;;;;5113557;28;20024;-71
2021/08/04 09:41:15;;;;;;;8.10;1.90;;;26.50;58.70;;;;;;5113319;28;20422;-71
2021/08/04 09:43:44;;;;;;;5.28;2.00;;;26.50;59.20;;;;;;5113491;28;20027;-71
2021/08/04 09:46:24;;;;;;;7.72;1.83;;;26.50;57.70;;;;;;5113106;28;20039;-71
2021/08/04 09:48:50;;;;;;;8.05;2.03;;;26.50;58.30;;;;;;5112936;28;20023;-71
2021/08/04 09:51:17;;;;;;;11.77;1.98;;;26.50;59.20;;;;;;5113175;28;20028;-71
2021/08/04 09:53:49;;;;;;;6.82;1.85;;;26.50;59.20;;;;;;5113159;28;20499;-72
2021/08/04 09:56:16;;;;;;;;;;;26.50;59.10;;;;;;5113681;28;20031;-69
2021/08/04 09:58:45;;;;;;;4.13;1.80;;;26.60;59.30;;;;;;5113299;28;19910;-69
2021/08/04 10:01:14;;;;;;;4.30;1.90;;;26.50;58.20;;;;;;5113228;28;20042;-71
2021/08/04 10:04:05;;;;;;;7.03;2.45;;;26.50;58.40;;;;;;5113006;28;20464;-70
2021/08/04 10:06:32;;;;;;;5.80;1.88;;;26.50;59.30;;;;;;5113155;28;20127;-70
2021/08/04 10:09:00;;;;;;;6.00;2.28;;;26.50;59.80;;;;;;5112635;28;20031;-69
2021/08/04 10:11:26;;;;;;;6.65;1.80;;;26.50;59.30;;;;;;5112966;28;20110;-70
2021/08/04 10:13:55;;;;;;;4.80;1.92;;;26.50;57.90;;;;;;5112868;28;20043;-69
2021/08/04 10:16:22;;;;;;;5.18;1.58;;;26.60;57.60;;;;;;5113194;28;20034;-69
2021/08/04 10:18:49;;;;;;;5.50;1.90;;;26.60;57.40;;;;;;5113260;28;20479;-71
2021/08/04 10:21:15;;;;;;;5.90;1.63;;;26.70;56.70;;;;;;5113396;28;20081;-72
2021/08/04 10:23:51;;;;;;;4.47;1.63;;;26.70;56.60;;;;;;5113246;28;20476;-72
2021/08/04 10:26:18;;;;;;;5.68;1.90;;;26.80;56.50;;;;;;5112837;28;20028;-73
2021/08/04 10:28:45;;;;;;;4.32;1.55;;;26.90;56.00;;;;;;5109964;28;20055;-73
2021/08/04 10:31:14;;;;;;;6.22;1.67;;;26.90;56.20;;;;;;5110144;28;20038;-73
2021/08/04 10:33:41;;;;;;;5.45;2.13;;;26.90;56.20;;;;;;5111589;28;20032;-72
2021/08/04 10:36:10;;;;;;;5.80;2.10;;;27.00;56.30;;;;;;5112696;28;20052;-72
2021/08/04 10:38:45;;;;;;;7.30;1.88;;;27.10;55.30;;;;;;5113045;28;20016;-72
2021/08/04 10:41:29;;;;;;;6.43;1.92;;;27.10;55.80;;;;;;5111274;28;20121;-72
2021/08/04 10:44:05;;;;;;;6.32;1.60;;;27.10;55.30;;;;;;5110124;28;20160;-71
2021/08/04 10:46:31;;;;;;;8.02;2.22;;;27.10;54.50;;;;;;5111724;28;20064;-71
2021/08/04 10:49:05;;;;;;;5.93;1.98;;;27.10;54.30;;;;;;5113208;28;20070;-72
2021/08/04 10:51:36;;;;;;;5.97;2.20;;;27.10;54.90;;;;;;5113098;28;20031;-72
2021/08/04 10:54:02;;;;;;;4.57;1.65;;;27.10;55.70;;;;;;5112785;28;20026;-72
2021/08/04 10:56:36;;;;;;;5.55;1.63;;;27.00;56.00;;;;;;5113003;28;20103;-69
2021/08/04 10:59:13;;;;;;;6.63;1.73;;;27.10;56.90;;;;;;5113267;28;20444;-69
2021/08/04 11:01:50;;;;;;;4.47;1.80;;;27.00;57.20;;;;;;5114960;28;20069;-70
2021/08/04 11:04:45;;;;;;;7.65;2.00;;;27.00;57.60;;;;;;5116249;28;20031;-69
2021/08/04 11:07:20;;;;;;;10.93;1.83;;;27.00;57.50;;;;;;5116137;28;20031;-69
2021/08/04 11:09:48;;;;;;;5.40;1.83;;;27.00;57.60;;;;;;5116543;28;20023;-71
2021/08/04 11:12:22;;;;;;;11.13;1.98;;;27.00;57.40;;;;;;5116292;28;20445;-72
2021/08/04 11:14:49;;;;;;;7.05;2.10;;;27.00;57.90;;;;;;5116358;28;20020;-72
2021/08/04 11:17:19;;;;;;;8.73;2.10;;;26.90;57.10;;;;;;5115895;27;20068;-72
2021/08/04 11:20:02;;;;;;;4.18;1.90;;;26.90;57.50;;;;;;5116397;28;20055;-72
2021/08/04 11:22:39;;;;;;;3.15;1.60;;;26.90;57.20;;;;;;5116312;28;20368;-72
2021/08/04 11:25:22;;;;;;;5.80;2.10;;;26.90;56.80;;;;;;5115856;28;20460;-72
2021/08/04 11:27:48;;;;;;;5.78;1.85;;;26.90;56.70;;;;;;5115948;27;20051;-72
2021/08/04 11:30:28;;;;;;;3.47;1.88;;;26.90;56.70;;;;;;5116412;28;20029;-73
2021/08/04 11:33:19;;;;;;;5.55;2.30;;;26.90;56.80;;;;;;5116237;28;20425;-72
2021/08/04 11:36:05;;;;;;;5.35;2.45;;;26.90;56.60;;;;;;5115796;28;20395;-73
2021/08/04 11:38:49;;;;;;;2.45;1.80;;;26.90;56.00;;;;;;5116029;28;20019;-72
2021/08/04 11:41:45;;;;;;;7.07;2.35;;;26.90;55.60;;;;;;5115982;28;20467;-73
2021/08/04 11:44:26;;;;;;;7.80;1.80;;;26.90;55.00;;;;;;5115695;28;20510;-72
2021/08/04 11:46:56;;;;;;;4.32;2.35;;;26.90;55.00;;;;;;5115625;28;20115;-72
2021/08/04 11:49:33;;;;;;;3.65;2.05;;;26.90;54.80;;;;;;5115693;28;20491;-72
2021/08/04 11:52:09;;;;;;;5.13;1.83;;;27.00;54.70;;;;;;5116087;28;20376;-72
2021/08/04 11:54:47;;;;;;;12.20;2.05;;;27.00;54.00;;;;;;5115501;28;20426;-72
2021/08/04 11:57:25;;;;;;;4.65;1.75;;;27.00;53.90;;;;;;5115484;28;20102;-72
2021/08/04 11:59:53;;;;;;;6.35;1.90;;;27.00;53.50;;;;;;5115737;28;20045;-72
2021/08/04 12:02:23;;;;;;;3.42;2.15;;;27.00;53.60;;;;;;5115522;28;20028;-71
2021/08/04 12:04:53;;;;;;;4.30;1.60;;;27.00;52.80;;;;;;5115360;28;20521;-71
2021/08/04 12:07:23;;;;;;;9.35;1.98;;;27.00;53.20;;;;;;5115468;28;20020;-72
2021/08/04 12:09:49;;;;;;;4.68;1.98;;;27.10;52.70;;;;;;5115339;28;20054;-72
2021/08/04 12:12:23;;;;;;;2.83;1.80;;;27.10;51.80;;;;;;5113722;28;20540;-72
2021/08/04 12:14:51;;;;;;;6.60;1.88;;;27.10;51.50;;;;;;5113027;28;20114;-72
2021/08/04 12:17:28;;;;;;;11.50;2.92;;;27.10;51.00;;;;;;5113706;28;20095;-71
2021/08/04 12:19:55;;;;;;;6.50;1.77;;;27.10;51.40;;;;;;5115274;28;20068;-71
2021/08/04 12:22:28;;;;;;;4.45;1.52;;;27.10;50.50;;;;;;5115250;28;20028;-72
2021/08/04 12:24:59;;;;;;;5.32;1.80;;;27.10;50.30;;;;;;5114651;28;20115;-71
2021/08/04 12:27:38;;;;;;;2.95;1.90;;;27.10;50.70;;;;;;5114838;28;20063;-71
2021/08/04 12:30:11;;;;;;;4.70;1.52;;;27.20;50.00;;;;;;5115029;28;20031;-72
2021/08/04 12:33:14;;;;;;;3.08;1.75;;;27.10;50.00;;;;;;5115082;28;20057;-71
2021/08/04 12:35:42;;;;;;;4.38;1.65;;;27.20;49.80;;;;;;5115180;28;20107;-72
2021/08/04 12:38:16;;;;;;;2.67;1.65;;;27.20;49.00;;;;;;5114547;28;20024;-71
2021/08/04 12:40:48;;;;;;;3.78;1.70;;;27.20;49.10;;;;;;5114933;28;20051;-72
2021/08/04 12:43:14;;;;;;;3.80;1.60;;;27.20;48.90;;;;;;5114691;28;20016;-72
2021/08/04 12:45:51;;;;;;;5.40;1.60;;;27.20;49.30;;;;;;5114165;27;20039;-71
2021/08/04 12:48:33;;;;;;;2.58;1.40;;;27.30;49.50;;;;;;5114166;28;20502;-72
2021/08/04 12:50:59;;;;;;;3.60;1.77;;;27.30;49.10;;;;;;5113863;28;20487;-71
2021/08/04 12:53:28;;;;;;;2.95;1.77;;;27.40;49.00;;;;;;5114131;27;20024;-72
2021/08/04 12:55:59;;;;;;;4.72;2.45;;;27.40;48.30;;;;;;5114131;28;20115;-72
2021/08/04 12:58:24;;;;;;;3.28;1.83;;;27.50;48.90;;;;;;5114167;28;20059;-71